sensor_id;sensor_type;location;lat;lon;timestamp;pressure;altitude;pressure_sealevel;temperature;humidity
13705;BME280;6924;52.122;9.952;2022-10-16T00:01:34;100064.09;;;14.50;94.51
13705;BME280;6924;52.122;9.952;2022-10-16T00:04:01;100068.81;;;14.46;94.43
13705;BME280;6924;52.122;9.952;2022-10-16T00:06:28;100080.09;;;14.42;94.26
13705;BME280;6924;52.122;9.952;2022-10-16T00:08:55;100075.56;;;14.41;94.27
13705;BME280;6924;52.122;9.952;2022-10-16T00:11:24;100080.28;;;14.37;94.20
13705;BME280;6924;52.122;9.952;2022-10-16T00:13:55;100077.81;;;14.36;94.36
13705;BME280;6924;52.122;9.952;2022-10-16T00:16:23;100088.00;;;14.37;94.17
13705;BME280;6924;52.122;9.952;2022-10-16T00:18:50;100081.84;;;14.35;94.48
13705;BME280;6924;52.122;9.952;2022-10-16T00:21:18;100081.00;;;14.34;94.46
13705;BME280;6924;52.122;9.952;2022-10-16T00:23:45;100079.38;;;14.33;94.61
13705;BME280;6924;52.122;9.952;2022-10-16T00:26:14;100092.25;;;14.31;94.62
13705;BME280;6924;52.122;9.952;2022-10-16T00:28:41;100085.75;;;14.30;94.63
13705;BME280;6924;52.122;9.952;2022-10-16T00:31:09;100082.06;;;14.30;94.87
13705;BME280;6924;52.122;9.952;2022-10-16T00:33:39;100087.75;;;14.30;94.96
13705;BME280;6924;52.122;9.952;2022-10-16T00:36:07;100095.81;;;14.27;95.25
13705;BME280;6924;52.122;9.952;2022-10-16T00:38:33;100098.19;;;14.25;95.40
13705;BME280;6924;52.122;9.952;2022-10-16T00:41:00;100113.94;;;14.23;95.78
13705;BME280;6924;52.122;9.952;2022-10-16T00:43:36;100107.28;;;14.19;95.58
13705;BME280;6924;52.122;9.952;2022-10-16T00:46:08;100103.13;;;14.16;95.76
13705;BME280;6924;52.122;9.952;2022-10-16T00:48:37;100114.03;;;14.14;95.66
13705;BME280;6924;52.122;9.952;2022-10-16T00:51:06;100112.72;;;14.12;95.68
13705;BME280;6924;52.122;9.952;2022-10-16T00:53:34;100113.88;;;14.11;95.95
13705;BME280;6924;52.122;9.952;2022-10-16T00:56:01;100118.75;;;14.10;96.25
13705;BME280;6924;52.122;9.952;2022-10-16T00:58:28;100114.25;;;14.09;96.32
13705;BME280;6924;52.122;9.952;2022-10-16T01:00:55;100121.09;;;14.08;96.32
13705;BME280;6924;52.122;9.952;2022-10-16T01:03:25;100125.97;;;14.08;96.49
13705;BME280;6924;52.122;9.952;2022-10-16T01:06:02;100127.84;;;14.03;96.41
13705;BME280;6924;52.122;9.952;2022-10-16T01:08:39;100118.50;;;14.03;96.12
13705;BME280;6924;52.122;9.952;2022-10-16T01:11:13;100109.00;;;13.99;96.24
13705;BME280;6924;52.122;9.952;2022-10-16T01:13:47;100116.31;;;14.00;95.62
13705;BME280;6924;52.122;9.952;2022-10-16T01:16:24;100117.03;;;13.97;95.66
13705;BME280;6924;52.122;9.952;2022-10-16T01:18:58;100105.50;;;13.93;95.84
13705;BME280;6924;52.122;9.952;2022-10-16T01:21:32;100107.91;;;13.91;96.17
13705;BME280;6924;52.122;9.952;2022-10-16T01:24:04;100104.56;;;13.89;95.98
13705;BME280;6924;52.122;9.952;2022-10-16T01:26:44;100113.94;;;13.90;
13705;BME280;6924;52.122;9.952;2022-10-16T01:29:20;100119.13;;;13.88;96.17
13705;BME280;6924;52.122;9.952;2022-10-16T01:31:53;100113.44;;;13.88;96.61
13705;BME280;6924;52.122;9.952;2022-10-16T01:34:25;100114.28;;;13.88;97.05
13705;BME280;6924;52.122;9.952;2022-10-16T01:36:57;100119.94;;;13.88;97.46
13705;BME280;6924;52.122;9.952;2022-10-16T01:39:30;100121.97;;;13.88;97.51
13705;BME280;6924;52.122;9.952;2022-10-16T01:42:02;100124.00;;;13.87;97.54
13705;BME280;6924;52.122;9.952;2022-10-16T01:44:33;100128.00;;;13.86;97.62
13705;BME280;6924;52.122;9.952;2022-10-16T01:47:01;100130.00;;;13.85;97.63
13705;BME280;6924;52.122;9.952;2022-10-16T01:49:32;100137.72;;;13.85;97.28
13705;BME280;6924;52.122;9.952;2022-10-16T01:52:02;100131.66;;;13.87;97.28
13705;BME280;6924;52.122;9.952;2022-10-16T01:54:31;100130.00;;;13.85;97.35
13705;BME280;6924;52.122;9.952;2022-10-16T01:56:59;100139.75;;;13.84;97.43
13705;BME280;6924;52.122;9.952;2022-10-16T01:59:32;100133.19;;;13.84;97.63
13705;BME280;6924;52.122;9.952;2022-10-16T02:02:04;100133.56;;;13.82;97.70
13705;BME280;6924;52.122;9.952;2022-10-16T02:04:34;100135.56;;;13.82;97.40
13705;BME280;6924;52.122;9.952;2022-10-16T02:07:02;100146.44;;;13.80;97.05
13705;BME280;6924;52.122;9.952;2022-10-16T02:09:29;100149.66;;;13.78;96.76
13705;BME280;6924;52.122;9.952;2022-10-16T02:11:59;100156.88;;;13.76;96.40
13705;BME280;6924;52.122;9.952;2022-10-16T02:14:28;100159.34;;;13.77;96.22
13705;BME280;6924;52.122;9.952;2022-10-16T02:16:56;100159.34;;;13.77;96.55
13705;BME280;6924;52.122;9.952;2022-10-16T02:19:23;100167.88;;;13.77;96.04
13705;BME280;6924;52.122;9.952;2022-10-16T02:21:51;100157.69;;;13.76;96.23
13705;BME280;6924;52.122;9.952;2022-10-16T02:24:25;100169.72;;;13.73;96.20
13705;BME280;6924;52.122;9.952;2022-10-16T02:26:58;100167.25;;;13.72;95.79
13705;BME280;6924;52.122;9.952;2022-10-16T02:29:27;100176.94;;;13.71;95.51
13705;BME280;6924;52.122;9.952;2022-10-16T02:31:58;100174.81;;;13.68;95.44
13705;BME280;6924;52.122;9.952;2022-10-16T02:34:27;100175.84;;;13.63;95.08
13705;BME280;6924;52.122;9.952;2022-10-16T02:36:56;100170.84;;;13.60;94.87
13705;BME280;6924;52.122;9.952;2022-10-16T02:39:25;100173.88;;;13.55;94.76
13705;BME280;6924;52.122;9.952;2022-10-16T02:41:53;100168.03;;;13.51;94.48
13705;BME280;6924;52.122;9.952;2022-10-16T02:44:19;100168.03;;;13.51;94.19
13705;BME280;6924;52.122;9.952;2022-10-16T02:46:46;100170.41;;;13.49;94.45
13705;BME280;6924;52.122;9.952;2022-10-16T02:49:14;100163.06;;;13.48;95.02
13705;BME280;6924;52.122;9.952;2022-10-16T02:51:40;100160.56;;;13.47;95.09
13705;BME280;6924;52.122;9.952;2022-10-16T02:54:07;100162.91;;;13.44;95.17
13705;BME280;6924;52.122;9.952;2022-10-16T02:56:33;100154.25;;;13.41;95.34
13705;BME280;6924;52.122;9.952;2022-10-16T02:59:00;100162.78;;;13.41;95.46
13705;BME280;6924;52.122;9.952;2022-10-16T03:01:26;100158.75;;;13.42;95.59
13705;BME280;6924;52.122;9.952;2022-10-16T03:03:53;100157.94;;;13.41;96.24
13705;BME280;6924;52.122;9.952;2022-10-16T03:06:20;100155.41;;;13.40;96.21
13705;BME280;6924;52.122;9.952;2022-10-16T03:08:47;100155.09;;;13.41;96.37
13705;BME280;6924;52.122;9.952;2022-10-16T03:11:13;100146.56;;;13.41;97.09
13705;BME280;6924;52.122;9.952;2022-10-16T03:13:40;100143.38;;;13.43;97.21
13705;BME280;6924;52.122;9.952;2022-10-16T03:16:07;100138.38;;;13.40;97.39
13705;BME280;6924;52.122;9.952;2022-10-16T03:18:33;100139.25;;;13.40;97.26
13705;BME280;6924;52.122;9.952;2022-10-16T03:21:00;100142.41;;;13.39;97.04
13705;BME280;6924;52.122;9.952;2022-10-16T03:23:28;100148.44;;;13.37;96.93
13705;BME280;6924;52.122;9.952;2022-10-16T03:25:54;100150.44;;;13.37;96.77
13705;BME280;6924;52.122;9.952;2022-10-16T03:28:21;100149.94;;;13.35;96.83
13705;BME280;6924;52.122;9.952;2022-10-16T03:30:47;100146.63;;;13.33;96.73
13705;BME280;6924;52.122;9.952;2022-10-16T03:33:14;100149.78;;;13.31;96.48
13705;BME280;6924;52.122;9.952;2022-10-16T03:35:40;100150.16;;;13.30;96.57
13705;BME280;6924;52.122;9.952;2022-10-16T03:38:07;100152.16;;;13.29;96.72
13705;BME280;6924;52.122;9.952;2022-10-16T03:40:35;100153.63;;;13.27;96.75
13705;BME280;6924;52.122;9.952;2022-10-16T03:43:01;100153.16;;;13.24;96.73
13705;BME280;6924;52.122;9.952;2022-10-16T03:45:27;100168.53;;;13.23;96.64
13705;BME280;6924;52.122;9.952;2022-10-16T03:47:54;100161.03;;;13.19;96.51
13705;BME280;6924;52.122;9.952;2022-10-16T03:50:20;100168.75;;;13.18;96.60
13705;BME280;6924;52.122;9.952;2022-10-16T03:52:47;100165.75;;;13.15;96.61
13705;BME280;6924;52.122;9.952;2022-10-16T03:55:13;100175.41;;;13.14;96.03
13705;BME280;6924;52.122;9.952;2022-10-16T03:57:41;100168.41;;;13.11;96.21
13705;BME280;6924;52.122;9.952;2022-10-16T04:00:09;100177.63;;;13.08;95.68
13705;BME280;6924;52.122;9.952;2022-10-16T04:02:36;100176.31;;;13.06;95.97
13705;BME280;6924;52.122;9.952;2022-10-16T04:05:03;100174.31;;;13.06;96.26
13705;BME280;6924;52.122;9.952;2022-10-16T04:07:29;100179.97;;;13.06;96.36
13705;BME280;6924;52.122;9.952;2022-10-16T04:09:56;100159.94;;;13.02;96.93
13705;BME280;6924;52.122;9.952;2022-10-16T04:12:24;100157.09;;;13.02;96.87
13705;BME280;6924;52.122;9.952;2022-10-16T04:14:52;100148.47;;;12.99;96.78
13705;BME280;6924;52.122;9.952;2022-10-16T04:17:18;100160.97;;;12.98;96.81
13705;BME280;6924;52.122;9.952;2022-10-16T04:19:45;100177.00;;;12.94;96.90
13705;BME280;6924;52.122;9.952;2022-10-16T04:22:11;100195.56;;;12.91;97.36
13705;BME280;6924;52.122;9.952;2022-10-16T04:24:38;100197.09;;;12.89;97.39
13705;BME280;6924;52.122;9.952;2022-10-16T04:27:04;100198.59;;;12.86;96.98
13705;BME280;6924;52.122;9.952;2022-10-16T04:29:31;100206.28;;;12.86;97.23
13705;BME280;6924;52.122;9.952;2022-10-16T04:31:59;100204.28;;;12.86;97.47
13705;BME280;6924;52.122;9.952;2022-10-16T04:34:25;100192.91;;;12.86;97.81
13705;BME280;6924;52.122;9.952;2022-10-16T04:36:51;100191.41;;;12.89;98.54
13705;BME280;6924;52.122;9.952;2022-10-16T04:39:18;100190.25;;;12.90;99.71
13705;BME280;6924;52.122;9.952;2022-10-16T04:41:44;100191.06;;;12.90;100.00
13705;BME280;6924;52.122;9.952;2022-10-16T04:44:11;100187.88;;;12.92;100.00
13705;BME280;6924;52.122;9.952;2022-10-16T04:46:37;100186.22;;;12.91;100.00
13705;BME280;6924;52.122;9.952;2022-10-16T04:49:05;100175.69;;;12.91;100.00
13705;BME280;6924;52.122;9.952;2022-10-16T04:51:32;100185.03;;;12.92;100.00
13705;BME280;6924;52.122;9.952;2022-10-16T04:53:58;100189.06;;;12.91;100.00
13705;BME280;6924;52.122;9.952;2022-10-16T04:56:25;100184.22;;;12.91;100.00
13705;BME280;6924;52.122;9.952;2022-10-16T04:58:51;100199.72;;;12.94;100.00
13705;BME280;6924;52.122;9.952;2022-10-16T05:01:18;100191.69;;;12.96;100.00
13705;BME280;6924;52.122;9.952;2022-10-16T05:03:45;100190.53;;;12.97;100.00
13705;BME280;6924;52.122;9.952;2022-10-16T05:06:12;100197.72;;;13.03;100.00
13705;BME280;6924;52.122;9.952;2022-10-16T05:08:39;100202.69;;;13.06;100.00
13705;BME280;6924;52.122;9.952;2022-10-16T05:11:05;100208.03;;;13.08;100.00
13705;BME280;6924;52.122;9.952;2022-10-16T05:13:32;100202.50;;;13.11;100.00
13705;BME280;6924;52.122;9.952;2022-10-16T05:15:58;100205.81;;;13.13;100.00
13705;BME280;6924;52.122;9.952;2022-10-16T05:18:25;100217.19;;;13.13;100.00
13705;BME280;6924;52.122;9.952;2022-10-16T05:20:51;100210.84;;;13.16;100.00
13705;BME280;6924;52.122;9.952;2022-10-16T05:23:19;100209.66;;;13.17;100.00
13705;BME280;6924;52.122;9.952;2022-10-16T05:25:52;100212.16;;;13.19;100.00
13705;BME280;6924;52.122;9.952;2022-10-16T05:28:19;100220.31;;;13.20;100.00
13705;BME280;6924;52.122;9.952;2022-10-16T05:30:46;100217.97;;;13.22;100.00
13705;BME280;6924;52.122;9.952;2022-10-16T05:33:12;100226.16;;;13.24;100.00
13705;BME280;6924;52.122;9.952;2022-10-16T05:35:38;100239.19;;;13.25;100.00
13705;BME280;6924;52.122;9.952;2022-10-16T05:38:05;100238.34;;;13.24;100.00
13705;BME280;6924;52.122;9.952;2022-10-16T05:40:33;100244.03;;;13.24;100.00
13705;BME280;6924;52.122;9.952;2022-10-16T05:43:00;100248.88;;;13.24;100.00
13705;BME280;6924;52.122;9.952;2022-10-16T05:45:26;100239.88;;;13.22;100.00
13705;BME280;6924;52.122;9.952;2022-10-16T05:47:53;100255.25;;;13.21;100.00
13705;BME280;6924;52.122;9.952;2022-10-16T05:50:19;100256.41;;;13.20;100.00
13705;BME280;6924;52.122;9.952;2022-10-16T05:52:46;100251.56;;;13.20;100.00
13705;BME280;6924;52.122;9.952;2022-10-16T05:55:12;100247.88;;;13.20;100.00
13705;BME280;6924;52.122;9.952;2022-10-16T05:57:40;100249.41;;;13.17;100.00
13705;BME280;6924;52.122;9.952;2022-10-16T06:00:08;100253.44;;;13.16;100.00
13705;BME280;6924;52.122;9.952;2022-10-16T06:02:34;100258.25;;;13.16;100.00
13705;BME280;6924;52.122;9.952;2022-10-16T06:05:01;100271.13;;;13.13;100.00
13705;BME280;6924;52.122;9.952;2022-10-16T06:07:27;100269.47;;;13.12;100.00
13705;BME280;6924;52.122;9.952;2022-10-16T06:09:54;100276.81;;;13.13;100.00
13705;BME280;6924;52.122;9.952;2022-10-16T06:12:20;100270.31;;;13.13;100.00
13705;BME280;6924;52.122;9.952;2022-10-16T06:14:48;100263.81;;;13.12;100.00
13705;BME280;6924;52.122;9.952;2022-10-16T06:17:15;100275.50;;;13.11;100.00
13705;BME280;6924;52.122;9.952;2022-10-16T06:19:42;100265.31;;;13.10;100.00
13705;BME280;6924;52.122;9.952;2022-10-16T06:22:09;100265.81;;;13.12;100.00
13705;BME280;6924;52.122;9.952;2022-10-16T06:24:35;100277.66;;;13.14;100.00
13705;BME280;6924;52.122;9.952;2022-10-16T06:27:03;100280.03;;;13.12;100.00
13705;BME280;6924;52.122;9.952;2022-10-16T06:29:29;100294.34;;;13.15;100.00
13705;BME280;6924;52.122;9.952;2022-10-16T06:31:57;100295.66;;;13.18;100.00
13705;BME280;6924;52.122;9.952;2022-10-16T06:34:23;100297.50;;;13.22;100.00
13705;BME280;6924;52.122;9.952;2022-10-16T06:36:50;100300.50;;;13.26;100.00
13705;BME280;6924;52.122;9.952;2022-10-16T06:39:16;100301.84;;;13.29;100.00
13705;BME280;6924;52.122;9.952;2022-10-16T06:41:43;100298.69;;;13.30;100.00
13705;BME280;6924;52.122;9.952;2022-10-16T06:44:09;100303.19;;;13.31;100.00
13705;BME280;6924;52.122;9.952;2022-10-16T06:46:36;100309.03;;;13.35;100.00
13705;BME280;6924;52.122;9.952;2022-10-16T06:49:04;100325.03;;;13.39;100.00
13705;BME280;6924;52.122;9.952;2022-10-16T06:51:30;100329.22;;;13.42;100.00
13705;BME280;6924;52.122;9.952;2022-10-16T06:53:59;100319.16;;;13.44;100.00
13705;BME280;6924;52.122;9.952;2022-10-16T06:56:27;100316.97;;;13.50;100.00
13705;BME280;6924;52.122;9.952;2022-10-16T06:58:54;100324.00;;;13.53;100.00
13705;BME280;6924;52.122;9.952;2022-10-16T07:01:22;100329.31;;;13.63;100.00
13705;BME280;6924;52.122;9.952;2022-10-16T07:03:49;100332.78;;;13.69;100.00
13705;BME280;6924;52.122;9.952;2022-10-16T07:06:19;100336.41;;;13.78;100.00
13705;BME280;6924;52.122;9.952;2022-10-16T07:08:47;100346.41;;;13.84;100.00
13705;BME280;6924;52.122;9.952;2022-10-16T07:11:15;100336.03;;;13.88;100.00
13705;BME280;6924;52.122;9.952;2022-10-16T07:13:43;100345.69;;;13.96;100.00
13705;BME280;6924;52.122;9.952;2022-10-16T07:16:13;100356.16;;;14.04;100.00
13705;BME280;6924;52.122;9.952;2022-10-16T07:18:40;100355.28;;;14.12;100.00
13705;BME280;6924;52.122;9.952;2022-10-16T07:21:09;100346.38;;;14.22;100.00
13705;BME280;6924;52.122;9.952;2022-10-16T07:23:38;100344.28;;;14.32;100.00
13705;BME280;6924;52.122;9.952;2022-10-16T07:26:05;100357.63;;;14.40;100.00
13705;BME280;6924;52.122;9.952;2022-10-16T07:28:32;100346.38;;;14.43;100.00
13705;BME280;6924;52.122;9.952;2022-10-16T07:31:00;100344.97;;;14.50;100.00
13705;BME280;6924;52.122;9.952;2022-10-16T07:33:28;100362.84;;;14.59;100.00
13705;BME280;6924;52.122;9.952;2022-10-16T07:35:54;100361.94;;;14.67;100.00
13705;BME280;6924;52.122;9.952;2022-10-16T07:38:21;100368.97;;;14.70;100.00
13705;BME280;6924;52.122;9.952;2022-10-16T07:40:56;100375.63;;;14.74;100.00
13705;BME280;6924;52.122;9.952;2022-10-16T07:43:22;100389.31;;;14.80;100.00
13705;BME280;6924;52.122;9.952;2022-10-16T07:45:50;100378.13;;;14.75;100.00
13705;BME280;6924;52.122;9.952;2022-10-16T07:48:17;100381.50;;;14.90;100.00
13705;BME280;6924;52.122;9.952;2022-10-16T07:50:44;100384.78;;;15.00;100.00
13705;BME280;6924;52.122;9.952;2022-10-16T07:53:11;100387.63;;;15.00;100.00
13705;BME280;6924;52.122;9.952;2022-10-16T07:55:38;100397.28;;;15.08;99.36
13705;BME280;6924;52.122;9.952;2022-10-16T07:58:07;100404.06;;;15.16;98.48
13705;BME280;6924;52.122;9.952;2022-10-16T08:00:33;100398.44;;;15.28;98.25
13705;BME280;6924;52.122;9.952;2022-10-16T08:03:00;100397.97;;;15.38;97.70
13705;BME280;6924;52.122;9.952;2022-10-16T08:05:27;100410.00;;;15.44;97.03
13705;BME280;6924;52.122;9.952;2022-10-16T08:07:54;100408.94;;;15.48;95.61
13705;BME280;6924;52.122;9.952;2022-10-16T08:10:23;100398.84;;;15.51;94.56
13705;BME280;6924;52.122;9.952;2022-10-16T08:12:50;100405.63;;;15.59;94.88
13705;BME280;6924;52.122;9.952;2022-10-16T08:15:18;100407.66;;;15.70;94.41
13705;BME280;6924;52.122;9.952;2022-10-16T08:17:54;100411.13;;;15.76;93.89
13705;BME280;6924;52.122;9.952;2022-10-16T08:20:20;100420.94;;;15.87;94.13
13705;BME280;6924;52.122;9.952;2022-10-16T08:22:47;100429.47;;;16.00;92.94
13705;BME280;6924;52.122;9.952;2022-10-16T08:25:14;100423.19;;;16.06;90.01
13705;BME280;6924;52.122;9.952;2022-10-16T08:27:40;100430.44;;;16.04;89.82
13705;BME280;6924;52.122;9.952;2022-10-16T08:30:08;100440.66;;;16.05;89.89
13705;BME280;6924;52.122;9.952;2022-10-16T08:32:36;100437.94;;;16.08;90.50
13705;BME280;6924;52.122;9.952;2022-10-16T08:35:04;100439.72;;;16.13;90.03
13705;BME280;6924;52.122;9.952;2022-10-16T08:37:30;100438.75;;;16.09;90.37
13705;BME280;6924;52.122;9.952;2022-10-16T08:39:58;100428.06;;;16.06;90.46
13705;BME280;6924;52.122;9.952;2022-10-16T08:42:41;100434.72;;;16.22;90.86
13705;BME280;6924;52.122;9.952;2022-10-16T08:45:23;100440.31;;;16.31;90.24
13705;BME280;6924;52.122;9.952;2022-10-16T08:48:02;100434.00;;;16.38;89.67
13705;BME280;6924;52.122;9.952;2022-10-16T08:50:31;100440.44;;;16.47;89.91
13705;BME280;6924;52.122;9.952;2022-10-16T08:52:59;100448.03;;;16.55;89.33
13705;BME280;6924;52.122;9.952;2022-10-16T08:55:31;100445.53;;;16.66;88.04
13705;BME280;6924;52.122;9.952;2022-10-16T08:58:00;100447.28;;;16.70;85.13
13705;BME280;6924;52.122;9.952;2022-10-16T09:00:27;100447.66;;;16.69;85.13
13705;BME280;6924;52.122;9.952;2022-10-16T09:03:03;100446.03;;;16.80;85.57
13705;BME280;6924;52.122;9.952;2022-10-16T09:05:45;100447.19;;;16.91;85.30
13705;BME280;6924;52.122;9.952;2022-10-16T09:08:21;100450.22;;;17.11;85.02
13705;BME280;6924;52.122;9.952;2022-10-16T09:10:56;100456.47;;;17.29;82.85
13705;BME280;6924;52.122;9.952;2022-10-16T09:13:28;100462.69;;;17.47;82.77
13705;BME280;6924;52.122;9.952;2022-10-16T09:16:03;100461.72;;;17.55;79.92
13705;BME280;6924;52.122;9.952;2022-10-16T09:18:41;100465.91;;;17.73;77.86
13705;BME280;6924;52.122;9.952;2022-10-16T09:21:15;100460.50;;;17.84;78.06
13705;BME280;6924;52.122;9.952;2022-10-16T09:23:43;100473.06;;;17.95;76.80
13705;BME280;6924;52.122;9.952;2022-10-16T09:26:11;100467.72;;;18.10;76.18
13705;BME280;6924;52.122;9.952;2022-10-16T09:28:38;100477.81;;;18.20;74.85
13705;BME280;6924;52.122;9.952;2022-10-16T09:31:05;100474.28;;;18.26;72.24
13705;BME280;6924;52.122;9.952;2022-10-16T09:33:34;100480.84;;;18.27;72.19
13705;BME280;6924;52.122;9.952;2022-10-16T09:36:05;100477.44;;;18.21;71.28
13705;BME280;6924;52.122;9.952;2022-10-16T09:38:34;100476.06;;;18.15;70.71
13705;BME280;6924;52.122;9.952;2022-10-16T09:41:04;100477.16;;;18.10;70.33
13705;BME280;6924;52.122;9.952;2022-10-16T09:43:40;100490.81;;;18.33;71.74
13705;BME280;6924;52.122;9.952;2022-10-16T09:46:08;100498.94;;;18.47;71.70
13705;BME280;6924;52.122;9.952;2022-10-16T09:48:48;100497.38;;;18.65;69.51
13705;BME280;6924;52.122;9.952;2022-10-16T09:51:20;100503.72;;;18.74;68.72
13705;BME280;6924;52.122;9.952;2022-10-16T09:53:48;100501.53;;;18.84;67.18
13705;BME280;6924;52.122;9.952;2022-10-16T09:56:22;100502.91;;;18.90;66.78
13705;BME280;6924;52.122;9.952;2022-10-16T09:58:50;100501.69;;;18.91;66.19
13705;BME280;6924;52.122;9.952;2022-10-16T10:01:18;100505.16;;;19.00;66.61
13705;BME280;6924;52.122;9.952;2022-10-16T10:03:45;100509.06;;;19.08;65.81
13705;BME280;6924;52.122;9.952;2022-10-16T10:06:21;100515.06;;;19.03;65.51
13705;BME280;6924;52.122;9.952;2022-10-16T10:09:04;100511.25;;;18.79;64.44
13705;BME280;6924;52.122;9.952;2022-10-16T10:11:42;100506.41;;;18.67;64.46
13705;BME280;6924;52.122;9.952;2022-10-16T10:14:17;100517.50;;;18.53;65.72
13705;BME280;6924;52.122;9.952;2022-10-16T10:16:45;100517.97;;;18.55;66.20
13705;BME280;6924;52.122;9.952;2022-10-16T10:19:14;100508.81;;;18.49;63.76
13705;BME280;6924;52.122;9.952;2022-10-16T10:21:43;100517.31;;;18.62;65.17
13705;BME280;6924;52.122;9.952;2022-10-16T10:24:13;100510.41;;;18.78;63.86
13705;BME280;6924;52.122;9.952;2022-10-16T10:26:48;100511.00;;;19.04;62.15
13705;BME280;6924;52.122;9.952;2022-10-16T10:29:23;100517.38;;;19.32;62.11
13705;BME280;6924;52.122;9.952;2022-10-16T10:31:56;100519.22;;;19.60;63.00
13705;BME280;6924;52.122;9.952;2022-10-16T10:34:47;100512.56;;;19.75;62.40
13705;BME280;6924;52.122;9.952;2022-10-16T10:37:29;100521.78;;;19.85;59.35
13705;BME280;6924;52.122;9.952;2022-10-16T10:40:04;100519.56;;;19.97;59.83
13705;BME280;6924;52.122;9.952;2022-10-16T10:42:37;100516.19;;;19.92;59.30
13705;BME280;6924;52.122;9.952;2022-10-16T10:45:17;100516.97;;;19.89;59.06
13705;BME280;6924;52.122;9.952;2022-10-16T10:47:54;100520.41;;;19.98;59.75
13705;BME280;6924;52.122;9.952;2022-10-16T10:50:30;100521.72;;;19.81;58.89
13705;BME280;6924;52.122;9.952;2022-10-16T10:53:06;100524.59;;;19.81;58.23
13705;BME280;6924;52.122;9.952;2022-10-16T10:55:39;100544.34;;;19.67;57.43
13705;BME280;6924;52.122;9.952;2022-10-16T10:58:29;100529.94;;;19.83;57.16
13705;BME280;6924;52.122;9.952;2022-10-16T11:01:04;100531.44;;;19.96;57.68
13705;BME280;6924;52.122;9.952;2022-10-16T11:03:52;100522.34;;;20.13;58.14
13705;BME280;6924;52.122;9.952;2022-10-16T11:06:26;100528.72;;;20.03;57.47
13705;BME280;6924;52.122;9.952;2022-10-16T11:09:00;100528.38;;;20.08;58.01
13705;BME280;6924;52.122;9.952;2022-10-16T11:11:31;100531.00;;;20.17;59.42
13705;BME280;6924;52.122;9.952;2022-10-16T11:14:00;100536.97;;;20.28;59.13
13705;BME280;6924;52.122;9.952;2022-10-16T11:16:33;100542.34;;;20.29;57.24
13705;BME280;6924;52.122;9.952;2022-10-16T11:19:08;100533.34;;;20.31;58.00
13705;BME280;6924;52.122;9.952;2022-10-16T11:21:43;100536.09;;;20.47;56.92
13705;BME280;6924;52.122;9.952;2022-10-16T11:24:19;100527.59;;;20.54;56.25
13705;BME280;6924;52.122;9.952;2022-10-16T11:26:49;100530.47;;;20.54;57.06
13705;BME280;6924;52.122;9.952;2022-10-16T11:29:19;100531.00;;;20.59;56.48
13705;BME280;6924;52.122;9.952;2022-10-16T11:31:52;100534.47;;;20.49;54.11
13705;BME280;6924;52.122;9.952;2022-10-16T11:34:24;100539.34;;;20.45;54.56
13705;BME280;6924;52.122;9.952;2022-10-16T11:36:58;100541.88;;;20.50;54.46
13705;BME280;6924;52.122;9.952;2022-10-16T11:39:28;100547.81;;;20.57;54.39
13705;BME280;6924;52.122;9.952;2022-10-16T11:41:59;100555.31;;;20.66;55.29
13705;BME280;6924;52.122;9.952;2022-10-16T11:44:38;100545.97;;;20.72;53.65
13705;BME280;6924;52.122;9.952;2022-10-16T11:47:19;100550.16;;;20.75;54.04
13705;BME280;6924;52.122;9.952;2022-10-16T11:49:53;100541.53;;;20.75;54.59
13705;BME280;6924;52.122;9.952;2022-10-16T11:52:25;100555.94;;;20.78;53.20
13705;BME280;6924;52.122;9.952;2022-10-16T11:54:59;100560.69;;;20.67;53.42
13705;BME280;6924;52.122;9.952;2022-10-16T11:57:29;100559.59;;;20.75;54.20
13705;BME280;6924;52.122;9.952;2022-10-16T12:00:01;100561.31;;;20.80;53.72
13705;BME280;6924;52.122;9.952;2022-10-16T12:02:33;100565.84;;;20.81;52.99
13705;BME280;6924;52.122;9.952;2022-10-16T12:05:13;100566.22;;;20.56;51.80
13705;BME280;6924;52.122;9.952;2022-10-16T12:07:48;100568.41;;;20.63;53.87
13705;BME280;6924;52.122;9.952;2022-10-16T12:10:24;100577.56;;;20.69;54.83
13705;BME280;6924;52.122;9.952;2022-10-16T12:12:51;100568.47;;;20.67;52.62
13705;BME280;6924;52.122;9.952;2022-10-16T12:15:21;100571.00;;;20.49;54.19
13705;BME280;6924;52.122;9.952;2022-10-16T12:17:48;100564.50;;;20.29;54.45
13705;BME280;6924;52.122;9.952;2022-10-16T12:20:21;100570.47;;;20.43;54.58
13705;BME280;6924;52.122;9.952;2022-10-16T12:22:50;100564.38;;;20.44;53.56
13705;BME280;6924;52.122;9.952;2022-10-16T12:25:24;100569.53;;;20.35;53.05
13705;BME280;6924;52.122;9.952;2022-10-16T12:27:55;100576.28;;;20.23;54.09
13705;BME280;6924;52.122;9.952;2022-10-16T12:30:24;100571.81;;;20.26;54.34
13705;BME280;6924;52.122;9.952;2022-10-16T12:32:56;100566.97;;;20.30;55.70
13705;BME280;6924;52.122;9.952;2022-10-16T12:35:26;100576.88;;;20.33;53.64
13705;BME280;6924;52.122;9.952;2022-10-16T12:37:54;100579.31;;;20.31;54.09
13705;BME280;6924;52.122;9.952;2022-10-16T12:40:33;100581.38;;;20.11;53.25
13705;BME280;6924;52.122;9.952;2022-10-16T12:43:12;100589.53;;;20.09;54.32
13705;BME280;6924;52.122;9.952;2022-10-16T12:45:39;100590.81;;;19.92;53.76
13705;BME280;6924;52.122;9.952;2022-10-16T12:48:20;100594.19;;;19.97;54.44
13705;BME280;6924;52.122;9.952;2022-10-16T12:50:48;100597.25;;;19.85;54.42
13705;BME280;6924;52.122;9.952;2022-10-16T12:53:19;100595.88;;;19.79;53.81
13705;BME280;6924;52.122;9.952;2022-10-16T12:55:54;100599.81;;;19.90;55.52
13705;BME280;6924;52.122;9.952;2022-10-16T12:58:35;100599.81;;;19.90;54.45
13705;BME280;6924;52.122;9.952;2022-10-16T13:01:10;100607.72;;;19.97;55.09
13705;BME280;6924;52.122;9.952;2022-10-16T13:04:00;100619.22;;;19.97;55.16
13705;BME280;6924;52.122;9.952;2022-10-16T13:06:38;100620.81;;;19.94;55.39
13705;BME280;6924;52.122;9.952;2022-10-16T13:09:18;100617.66;;;19.80;53.51
13705;BME280;6924;52.122;9.952;2022-10-16T13:12:04;100614.81;;;19.84;54.46